createdAt,value
2018-06-30T00:00:28.837Z,70.78
2018-06-30T00:02:57.407Z,71.25
2018-06-30T00:05:25.447Z,71.58
2018-06-30T00:07:53.556Z,71.81
2018-06-30T00:10:25.448Z,71.69
2018-06-30T00:12:53.499Z,72.02
2018-06-30T00:15:21.572Z,71.63
2018-06-30T00:17:49.585Z,72.51
2018-06-30T00:20:17.611Z,72.40
2018-06-30T00:22:45.648Z,72.55
2018-06-30T00:25:13.840Z,71.90
2018-06-30T00:27:41.884Z,71.74
2018-06-30T00:30:09.904Z,72.35
2018-06-30T00:32:37.947Z,71.62
2018-06-30T00:35:06.234Z,72.93
2018-06-30T00:37:34.273Z,71.91
2018-06-30T00:40:02.320Z,72.83
2018-06-30T00:42:31.030Z,72.78
2018-06-30T00:44:59.094Z,71.45
2018-06-30T00:47:27.140Z,71.02
2018-06-30T00:49:55.221Z,71.00
2018-06-30T00:52:23.263Z,71.69
2018-06-30T00:54:51.735Z,72.97
2018-06-30T00:57:19.815Z,71.98
2018-06-30T00:59:47.843Z,72.01
2018-06-30T01:02:15.919Z,71.44
2018-06-30T01:04:43.989Z,72.00
2018-06-30T01:07:12.047Z,71.63
2018-06-30T01:09:40.096Z,71.66
2018-06-30T01:12:08.149Z,71.72
2018-06-30T01:14:36.233Z,71.81
2018-06-30T01:17:04.270Z,71.84
2018-06-30T01:19:32.314Z,71.12
2018-06-30T01:22:00.394Z,71.51
2018-06-30T01:24:28.438Z,72.31
2018-06-30T01:26:56.520Z,72.21
2018-06-30T01:29:24.576Z,72.06
2018-06-30T01:31:52.699Z,72.06
2018-06-30T01:34:20.749Z,71.05
2018-06-30T01:36:48.810Z,71.45
2018-06-30T01:39:16.975Z,71.01
2018-06-30T01:41:45.105Z,70.43
2018-06-30T01:44:13.176Z,70.30
2018-06-30T01:46:41.215Z,69.86
2018-06-30T01:49:09.267Z,69.81
2018-06-30T01:51:37.343Z,69.46
2018-06-30T01:54:05.675Z,69.33
2018-06-30T01:56:34.089Z,69.81
2018-06-30T01:59:02.206Z,69.49
2018-06-30T02:01:30.267Z,69.20
2018-06-30T02:03:58.327Z,69.14
2018-06-30T02:06:26.363Z,69.33
2018-06-30T02:08:54.574Z,69.37
2018-06-30T02:11:22.614Z,69.06
2018-06-30T02:13:50.682Z,69.61
2018-06-30T02:16:18.927Z,69.50
2018-06-30T02:18:47.071Z,69.25
2018-06-30T02:21:15.195Z,69.17
2018-06-30T02:23:43.318Z,69.14
2018-06-30T02:26:11.471Z,69.07
2018-06-30T02:28:39.587Z,68.82
2018-06-30T02:31:07.749Z,68.61
2018-06-30T02:33:35.816Z,68.31
2018-06-30T02:36:03.863Z,68.13
2018-06-30T02:38:31.933Z,68.37
2018-06-30T02:41:00.014Z,67.99
2018-06-30T02:43:28.086Z,68.23
2018-06-30T02:45:56.128Z,67.83
2018-06-30T02:48:24.147Z,67.78
2018-06-30T02:50:52.212Z,67.66
2018-06-30T02:53:20.280Z,67.83
2018-06-30T02:55:48.404Z,67.48
2018-06-30T02:58:16.524Z,67.53
2018-06-30T03:00:44.556Z,67.65
2018-06-30T03:03:12.589Z,67.61
2018-06-30T03:05:40.660Z,67.77
2018-06-30T03:08:08.720Z,68.16
2018-06-30T03:10:36.747Z,67.75
2018-06-30T03:13:04.776Z,67.87
2018-06-30T03:15:32.815Z,67.43
2018-06-30T03:18:00.852Z,67.54
2018-06-30T03:20:28.884Z,67.44
2018-06-30T03:22:56.934Z,67.23
2018-06-30T03:25:24.992Z,67.47
2018-06-30T03:27:53.008Z,67.32
2018-06-30T03:30:21.047Z,67.28
2018-06-30T03:32:49.135Z,67.29
2018-06-30T03:35:17.188Z,67.25
2018-06-30T03:37:45.401Z,67.44
2018-06-30T03:40:13.495Z,66.92
2018-06-30T03:42:41.595Z,67.06
2018-06-30T03:45:09.724Z,67.10
2018-06-30T03:47:37.786Z,67.83
2018-06-30T03:50:06.129Z,68.04
2018-06-30T03:52:34.161Z,68.31
2018-06-30T03:55:02.229Z,68.36
2018-06-30T03:57:30.275Z,68.29
2018-06-30T03:59:58.398Z,68.98
2018-06-30T04:02:28.571Z,69.72
2018-06-30T04:04:56.603Z,69.73
2018-06-30T04:07:24.651Z,69.80
2018-06-30T04:09:52.693Z,69.00
2018-06-30T04:12:20.737Z,68.86
2018-06-30T04:14:48.775Z,68.60
2018-06-30T04:17:16.847Z,68.45
2018-06-30T04:19:44.871Z,67.76
2018-06-30T04:22:13.012Z,67.44
2018-06-30T04:24:40.957Z,66.77
2018-06-30T04:27:09.076Z,65.62
2018-06-30T04:29:37.131Z,63.99
2018-06-30T04:32:05.178Z,61.28
2018-06-30T04:34:33.244Z,56.84
2018-06-30T04:37:01.285Z,55.82
2018-06-30T04:39:29.353Z,54.79
2018-06-30T04:41:57.635Z,53.01
2018-06-30T04:44:25.680Z,52.03
2018-06-30T04:46:53.732Z,49.72
2018-06-30T04:49:21.947Z,49.30
2018-06-30T04:51:49.980Z,47.05
2018-06-30T04:54:18.025Z,43.79
2018-06-30T04:56:46.195Z,45.03
2018-06-30T04:59:14.231Z,43.89
2018-06-30T05:01:42.267Z,42.31
2018-06-30T05:04:10.308Z,41.28
2018-06-30T05:06:38.344Z,41.78
2018-06-30T05:09:07.426Z,40.00
2018-06-30T05:11:35.459Z,41.17
2018-06-30T05:14:03.516Z,36.33
2018-06-30T05:16:31.556Z,38.04
2018-06-30T05:18:59.595Z,37.64
2018-06-30T05:21:27.639Z,35.56
2018-06-30T05:23:55.690Z,33.88
2018-06-30T05:26:23.715Z,34.81
2018-06-30T05:28:51.766Z,34.49
2018-06-30T05:31:19.795Z,34.75
2018-06-30T05:33:47.853Z,34.39
2018-06-30T05:36:15.944Z,34.59
2018-06-30T05:38:44.038Z,33.28
2018-06-30T05:41:12.106Z,32.65
2018-06-30T05:43:40.103Z,32.79
2018-06-30T05:46:08.147Z,32.69
2018-06-30T05:48:36.174Z,33.04
2018-06-30T05:51:04.231Z,31.93
2018-06-30T05:53:32.255Z,30.65
2018-06-30T05:56:00.308Z,31.48
2018-06-30T05:58:28.363Z,31.23
2018-06-30T06:00:56.416Z,31.59
2018-06-30T06:03:24.467Z,31.79
2018-06-30T06:05:52.493Z,32.12
2018-06-30T06:08:20.548Z,31.67
2018-06-30T06:10:48.568Z,30.27
2018-06-30T06:13:16.606Z,30.54
2018-06-30T06:15:44.672Z,30.27
2018-06-30T06:18:12.796Z,29.48
2018-06-30T06:20:40.815Z,30.84
2018-06-30T06:23:08.903Z,31.55
2018-06-30T06:25:36.941Z,30.08
2018-06-30T06:28:05.205Z,29.66
2018-06-30T06:30:33.408Z,29.93
2018-06-30T06:33:01.493Z,28.67
2018-06-30T06:35:29.580Z,29.67
2018-06-30T06:37:57.643Z,28.99
2018-06-30T06:40:25.978Z,29.48
2018-06-30T06:42:54.220Z,29.50
2018-06-30T06:45:22.827Z,28.74
2018-06-30T06:47:51.127Z,29.11
2018-06-30T06:50:19.182Z,29.96
2018-06-30T06:52:47.231Z,30.68
2018-06-30T06:55:15.600Z,30.12
2018-06-30T06:57:44.009Z,29.86
2018-06-30T07:00:12.299Z,28.64
2018-06-30T07:02:40.479Z,28.17
2018-06-30T07:05:08.676Z,28.01
2018-06-30T07:07:37.057Z,28.13
2018-06-30T07:10:05.420Z,28.55
2018-06-30T07:12:33.516Z,28.90
2018-06-30T07:15:01.999Z,28.75
2018-06-30T07:17:31.595Z,27.60
2018-06-30T07:19:59.711Z,28.27
2018-06-30T07:22:27.804Z,27.58
2018-06-30T07:24:55.895Z,27.77
2018-06-30T07:27:24.087Z,27.05
2018-06-30T07:29:52.306Z,26.48
2018-06-30T07:32:20.307Z,27.29
2018-06-30T07:34:49.746Z,26.73
2018-06-30T07:37:18.048Z,27.95
2018-06-30T07:39:46.269Z,26.72
2018-06-30T07:42:14.527Z,27.21
2018-06-30T07:44:42.801Z,27.71
2018-06-30T07:47:11.204Z,26.06
2018-06-30T07:49:39.331Z,27.58
2018-06-30T07:52:07.406Z,27.98
2018-06-30T07:54:35.500Z,27.77
2018-06-30T07:57:03.820Z,28.39
2018-06-30T07:59:32.034Z,27.57
2018-06-30T08:02:00.298Z,26.89
2018-06-30T08:04:28.360Z,26.75
2018-06-30T08:06:56.383Z,27.10
2018-06-30T08:09:24.411Z,26.48
2018-06-30T08:11:52.744Z,27.12
2018-06-30T08:14:20.828Z,27.17
2018-06-30T08:16:49.096Z,27.82
2018-06-30T08:19:17.573Z,27.45
2018-06-30T08:21:45.620Z,26.96
2018-06-30T08:24:13.786Z,27.25
2018-06-30T08:26:41.821Z,26.34
2018-06-30T08:29:09.849Z,26.66
2018-06-30T08:31:37.919Z,26.31
2018-06-30T08:34:07.134Z,26.08
2018-06-30T08:36:35.635Z,25.08
2018-06-30T08:39:05.803Z,24.82
2018-06-30T08:41:34.386Z,25.76
2018-06-30T08:44:02.442Z,25.01
2018-06-30T08:46:30.558Z,24.30
2018-06-30T08:48:58.817Z,23.53
2018-06-30T08:51:27.215Z,24.47
2018-06-30T08:53:55.272Z,24.79
2018-06-30T08:56:23.297Z,24.89
2018-06-30T08:58:51.367Z,23.83
2018-06-30T09:01:19.403Z,24.35
2018-06-30T09:03:47.536Z,25.20
2018-06-30T09:06:15.625Z,25.09
2018-06-30T09:08:44.005Z,24.82
2018-06-30T09:11:12.071Z,24.76
2018-06-30T09:13:40.272Z,24.65
2018-06-30T09:16:08.304Z,24.45
2018-06-30T09:18:36.344Z,24.77
2018-06-30T09:21:04.580Z,24.99
2018-06-30T09:23:32.779Z,25.18
2018-06-30T09:26:00.816Z,25.29
2018-06-30T09:28:28.859Z,24.99
2018-06-30T09:30:57.305Z,26.01
2018-06-30T09:33:25.351Z,25.47
2018-06-30T09:35:53.535Z,25.64
2018-06-30T09:38:21.607Z,25.43
2018-06-30T09:40:49.968Z,23.61
2018-06-30T09:43:18.013Z,24.51
2018-06-30T09:45:46.064Z,23.79
2018-06-30T09:48:14.391Z,23.72
2018-06-30T09:52:11.744Z,24.64
2018-06-30T09:54:40.298Z,24.55
2018-06-30T09:57:08.705Z,24.73
2018-06-30T09:59:36.876Z,22.78
2018-06-30T10:02:04.935Z,24.15
2018-06-30T10:04:32.994Z,24.32
2018-06-30T10:07:01.806Z,22.71
2018-06-30T10:09:29.971Z,23.43
2018-06-30T10:11:58.547Z,24.03
2018-06-30T10:14:26.735Z,23.34
2018-06-30T10:16:54.792Z,23.42
2018-06-30T10:19:22.934Z,23.26
2018-06-30T10:21:51.051Z,24.73
2018-06-30T10:24:20.505Z,25.38
2018-06-30T10:26:48.698Z,26.07
2018-06-30T10:29:17.151Z,24.66
2018-06-30T10:31:45.498Z,25.25
2018-06-30T10:34:14.644Z,26.49
2018-06-30T10:36:43.113Z,26.04
2018-06-30T10:39:12.641Z,26.63
2018-06-30T10:41:41.841Z,27.47
2018-06-30T10:44:10.543Z,26.98
2018-06-30T10:46:38.601Z,26.39
2018-06-30T10:49:07.686Z,26.25
2018-06-30T10:51:36.050Z,27.02
2018-06-30T10:54:04.099Z,27.07
2018-06-30T10:56:32.143Z,27.70
2018-06-30T10:59:00.588Z,27.46
2018-06-30T11:01:29.050Z,27.74
2018-06-30T11:03:57.727Z,26.53
2018-06-30T11:06:25.732Z,27.42
2018-06-30T11:08:53.839Z,26.88
2018-06-30T11:11:21.902Z,26.89
2018-06-30T11:13:50.035Z,27.78
2018-06-30T11:16:18.057Z,27.60
2018-06-30T11:18:46.122Z,27.68
2018-06-30T11:21:14.180Z,27.42
2018-06-30T11:23:42.218Z,27.95
2018-06-30T11:26:10.255Z,27.66
2018-06-30T11:28:38.631Z,27.92
2018-06-30T11:31:06.683Z,28.31
2018-06-30T11:33:34.719Z,27.59
2018-06-30T11:36:02.743Z,27.70
2018-06-30T11:38:30.802Z,27.63
2018-06-30T11:40:58.848Z,28.34
2018-06-30T11:43:26.950Z,28.06
2018-06-30T11:45:55.340Z,28.58
2018-06-30T11:48:23.408Z,27.61
2018-06-30T11:50:51.558Z,27.13
2018-06-30T11:53:19.844Z,27.67
2018-06-30T11:55:48.104Z,28.15
2018-06-30T11:58:16.236Z,26.74
2018-06-30T12:00:44.555Z,27.03
2018-06-30T12:03:12.600Z,27.24
2018-06-30T12:05:40.635Z,27.55
2018-06-30T12:08:08.692Z,26.76
2018-06-30T12:10:36.722Z,27.40
2018-06-30T12:13:04.763Z,26.57
2018-06-30T12:15:32.807Z,26.11
2018-06-30T12:18:00.929Z,26.34
2018-06-30T12:20:28.966Z,26.19
2018-06-30T12:22:56.995Z,26.40
2018-06-30T12:25:25.042Z,27.03
2018-06-30T12:27:53.067Z,26.48
2018-06-30T12:30:21.290Z,27.50
2018-06-30T12:32:49.423Z,27.34
2018-06-30T12:35:17.713Z,26.46
2018-06-30T12:37:46.027Z,26.73
2018-06-30T12:40:14.329Z,26.38
2018-06-30T12:42:42.685Z,27.34
2018-06-30T12:45:11.072Z,26.82
2018-06-30T12:47:39.340Z,26.29
2018-06-30T12:50:07.520Z,25.84
2018-06-30T12:52:35.803Z,26.22
2018-06-30T12:55:04.002Z,25.48
2018-06-30T12:57:32.048Z,26.25
2018-06-30T13:00:00.127Z,25.84
2018-06-30T13:02:28.185Z,26.51
2018-06-30T13:04:56.227Z,25.68
2018-06-30T13:07:24.295Z,24.38
2018-06-30T13:09:52.395Z,24.63
2018-06-30T13:12:20.664Z,25.06
2018-06-30T13:14:48.724Z,25.23
2018-06-30T13:17:16.937Z,24.19
2018-06-30T13:19:45.249Z,23.60
2018-06-30T13:22:13.631Z,24.26
2018-06-30T13:24:42.080Z,24.41
2018-06-30T13:27:10.620Z,23.53
2018-06-30T13:29:38.812Z,24.93
2018-06-30T13:32:07.135Z,25.18
2018-06-30T13:34:35.313Z,24.99
2018-06-30T13:37:03.348Z,25.18
2018-06-30T13:39:31.384Z,25.57
2018-06-30T13:41:59.423Z,24.12
2018-06-30T13:44:27.455Z,24.19
2018-06-30T13:46:55.520Z,23.34
2018-06-30T13:49:23.949Z,24.83
2018-06-30T13:51:52.092Z,25.30
2018-06-30T13:54:20.596Z,24.18
2018-06-30T13:56:48.799Z,25.17
2018-06-30T13:59:17.097Z,25.16
2018-06-30T14:01:45.351Z,25.45
2018-06-30T14:04:13.971Z,25.62
2018-06-30T14:06:42.605Z,24.34
2018-06-30T14:09:12.011Z,24.62
2018-06-30T14:11:40.603Z,24.98
2018-06-30T14:14:09.293Z,25.43
2018-06-30T14:16:37.327Z,26.00
2018-06-30T14:19:05.491Z,26.57
2018-06-30T14:21:33.538Z,26.20
2018-06-30T14:24:01.587Z,27.09
2018-06-30T14:26:29.772Z,26.61
2018-06-30T14:28:58.546Z,26.08
2018-06-30T14:31:26.614Z,26.09
2018-06-30T14:33:54.817Z,27.25
2018-06-30T14:36:22.838Z,26.95
2018-06-30T14:38:50.883Z,26.22
2018-06-30T14:41:18.963Z,26.94
2018-06-30T14:43:47.107Z,26.60
2018-06-30T14:46:15.083Z,25.26
2018-06-30T14:48:43.427Z,24.84
2018-06-30T14:51:11.919Z,26.05
2018-06-30T14:53:40.423Z,25.26
2018-06-30T14:56:08.755Z,25.66
2018-06-30T14:58:36.942Z,26.30
2018-06-30T15:01:05.065Z,25.62
2018-06-30T15:03:33.099Z,25.76
2018-06-30T15:06:01.336Z,25.39
2018-06-30T15:08:29.375Z,25.54
2018-06-30T15:10:57.424Z,25.52
2018-06-30T15:13:25.480Z,25.90
2018-06-30T15:15:53.527Z,24.80
2018-06-30T15:18:21.820Z,24.49
2018-06-30T15:20:51.334Z,24.16
2018-06-30T15:23:19.688Z,24.05
2018-06-30T15:25:47.888Z,24.34
2018-06-30T15:28:16.247Z,24.18
2018-06-30T15:30:45.393Z,24.35
2018-06-30T15:33:18.205Z,23.72
2018-06-30T15:35:46.593Z,23.30
2018-06-30T15:38:14.764Z,23.27
2018-06-30T15:40:43.263Z,23.80
2018-06-30T15:43:11.903Z,23.59
2018-06-30T15:45:41.089Z,24.04
2018-06-30T15:48:09.535Z,24.18
2018-06-30T15:50:37.622Z,24.05
2018-06-30T15:53:06.015Z,24.16
2018-06-30T15:55:34.078Z,23.39
2018-06-30T15:58:02.178Z,23.82
2018-06-30T16:00:30.239Z,23.82
2018-06-30T16:02:58.279Z,23.84
2018-06-30T16:05:26.350Z,23.84
2018-06-30T16:07:54.371Z,23.41
2018-06-30T16:10:22.546Z,24.04
2018-06-30T16:12:50.852Z,23.28
2018-06-30T16:15:19.260Z,23.63
2018-06-30T16:17:47.546Z,23.52
2018-06-30T16:20:15.810Z,23.47
2018-06-30T16:22:44.424Z,23.70
2018-06-30T16:25:12.998Z,23.18
2018-06-30T16:27:41.454Z,23.22
2018-06-30T16:30:10.124Z,23.19
2018-06-30T16:32:38.223Z,23.35
2018-06-30T16:35:06.267Z,22.79
2018-06-30T16:37:34.315Z,23.66
2018-06-30T16:40:02.388Z,22.81
2018-06-30T16:42:30.447Z,23.40
2018-06-30T16:44:58.480Z,23.14
2018-06-30T16:47:26.540Z,22.92
2018-06-30T16:49:54.580Z,22.90
2018-06-30T16:52:23.084Z,23.09
2018-06-30T16:54:51.543Z,23.42
2018-06-30T16:57:19.954Z,23.17
2018-06-30T16:59:48.321Z,22.76
2018-06-30T17:02:16.633Z,22.83
2018-06-30T17:04:45.263Z,23.60
2018-06-30T17:07:13.888Z,23.18
2018-06-30T17:09:43.074Z,23.51
2018-06-30T17:12:12.055Z,23.79
2018-06-30T17:14:41.287Z,23.58
2018-06-30T17:17:09.742Z,23.44
2018-06-30T17:19:39.025Z,23.91
2018-06-30T17:22:07.527Z,24.31
2018-06-30T17:24:35.800Z,24.53
2018-06-30T17:27:04.020Z,24.44
2018-06-30T17:29:32.068Z,24.86
2018-06-30T17:32:00.164Z,24.98
2018-06-30T17:34:28.224Z,25.16
2018-06-30T17:36:56.273Z,24.85
2018-06-30T17:39:24.355Z,25.00
2018-06-30T17:41:52.476Z,25.33
2018-06-30T17:44:20.531Z,25.19
2018-06-30T17:46:48.579Z,25.22
2018-06-30T17:49:16.608Z,26.26
2018-06-30T17:51:44.879Z,25.62
2018-06-30T17:54:12.924Z,25.83
2018-06-30T17:56:40.947Z,25.85
2018-06-30T17:59:08.999Z,25.81
2018-06-30T18:01:37.027Z,25.63
2018-06-30T18:04:05.411Z,26.02
2018-06-30T18:06:33.674Z,25.70
2018-06-30T18:09:01.729Z,26.66
2018-06-30T18:11:29.771Z,26.77
2018-06-30T18:13:57.900Z,26.17
2018-06-30T18:16:25.929Z,26.49
2018-06-30T18:18:53.975Z,27.11
2018-06-30T18:21:22.011Z,27.13
2018-06-30T18:23:50.056Z,27.27
2018-06-30T18:26:18.115Z,26.66
2018-06-30T18:28:47.538Z,26.36
2018-06-30T18:31:16.168Z,26.93
2018-06-30T18:33:44.879Z,27.15
2018-06-30T18:36:14.326Z,27.74
2018-06-30T18:38:43.809Z,27.81
2018-06-30T18:41:13.084Z,27.68
2018-06-30T18:43:42.029Z,28.06
2018-06-30T18:46:11.612Z,28.10
2018-06-30T18:48:40.359Z,28.11
2018-06-30T18:51:08.697Z,28.12
2018-06-30T18:53:36.748Z,28.45
2018-06-30T18:56:04.996Z,28.96
2018-06-30T18:58:33.064Z,28.92
2018-06-30T19:01:01.112Z,29.49
2018-06-30T19:03:29.171Z,29.35
2018-06-30T19:05:57.211Z,29.72
2018-06-30T19:08:25.249Z,29.84
2018-06-30T19:10:53.482Z,29.58
2018-06-30T19:13:21.684Z,29.74
2018-06-30T19:15:50.293Z,30.13
2018-06-30T19:18:18.821Z,30.53
2018-06-30T19:20:47.133Z,30.47
2018-06-30T19:23:15.707Z,31.00
2018-06-30T19:25:44.452Z,31.15
2018-06-30T19:28:13.287Z,31.19
2018-06-30T19:30:42.258Z,31.83
2018-06-30T19:33:10.395Z,31.53
2018-06-30T19:35:38.485Z,32.32
2018-06-30T19:38:06.531Z,31.98
2018-06-30T19:40:34.579Z,32.25
2018-06-30T19:43:02.707Z,32.58
2018-06-30T19:45:30.761Z,33.17
2018-06-30T19:47:58.800Z,33.34
2018-06-30T19:50:26.855Z,33.41
2018-06-30T19:52:54.896Z,33.18
2018-06-30T19:55:22.968Z,33.42
2018-06-30T19:57:51.260Z,33.93
2018-06-30T20:00:19.319Z,34.15
2018-06-30T20:02:47.392Z,34.15
2018-06-30T20:05:15.433Z,34.55
2018-06-30T20:07:48.819Z,34.59
2018-06-30T20:10:17.025Z,34.93
2018-06-30T20:12:45.272Z,35.16
2018-06-30T20:15:13.320Z,34.71
2018-06-30T20:17:41.562Z,35.57
2018-06-30T20:20:10.238Z,35.47
2018-06-30T20:22:38.404Z,35.41
2018-06-30T20:25:06.547Z,35.54
2018-06-30T20:27:34.659Z,36.05
2018-06-30T20:30:02.828Z,36.03
2018-06-30T20:32:31.008Z,35.91
2018-06-30T20:34:59.457Z,36.14
2018-06-30T20:37:27.671Z,36.22
2018-06-30T20:39:56.762Z,36.41
2018-06-30T20:42:25.135Z,37.17
2018-06-30T20:44:53.175Z,37.26
2018-06-30T20:47:21.277Z,37.42
2018-06-30T20:49:49.388Z,37.26
2018-06-30T20:52:17.468Z,37.55
2018-06-30T20:54:45.619Z,37.52
2018-06-30T20:57:13.696Z,37.52
2018-06-30T20:59:41.751Z,38.11
2018-06-30T21:02:09.978Z,38.46
2018-06-30T21:04:38.007Z,38.65
2018-06-30T21:07:06.308Z,38.40
2018-06-30T21:09:34.859Z,38.39
2018-06-30T21:12:02.964Z,38.73
2018-06-30T21:14:31.325Z,38.79
2018-06-30T21:16:59.497Z,38.86
2018-06-30T21:19:27.534Z,39.39
2018-06-30T21:21:55.677Z,39.24
2018-06-30T21:24:23.776Z,39.43
2018-06-30T21:26:51.848Z,39.90
2018-06-30T21:29:20.036Z,40.11
2018-06-30T21:31:48.292Z,40.08
2018-06-30T21:34:16.328Z,40.21
2018-06-30T21:36:44.389Z,40.23
2018-06-30T21:39:13.477Z,40.44
2018-06-30T21:41:41.780Z,40.32
2018-06-30T21:44:09.929Z,40.89
2018-06-30T21:46:38.874Z,40.86
2018-06-30T21:49:06.992Z,40.97
2018-06-30T21:51:35.151Z,41.01
2018-06-30T21:54:03.305Z,41.23
2018-06-30T21:56:31.595Z,41.71
2018-06-30T21:58:59.699Z,41.32
2018-06-30T22:01:27.739Z,41.87
2018-06-30T22:03:56.905Z,42.20
2018-06-30T22:06:25.143Z,41.92
2018-06-30T22:08:53.184Z,42.38
2018-06-30T22:11:21.311Z,42.33
2018-06-30T22:13:49.351Z,42.35
2018-06-30T22:16:17.488Z,42.50
2018-06-30T22:18:45.564Z,43.13
2018-06-30T22:21:13.732Z,43.05
2018-06-30T22:23:41.827Z,43.35
2018-06-30T22:26:09.905Z,43.46
2018-06-30T22:28:37.990Z,43.70
2018-06-30T22:31:06.033Z,43.22
2018-06-30T22:33:34.088Z,43.48
2018-06-30T22:36:02.168Z,43.55
2018-06-30T22:38:30.237Z,43.87
2018-06-30T22:40:58.271Z,44.05
2018-06-30T22:43:26.303Z,43.96
2018-06-30T22:45:54.368Z,44.18
2018-06-30T22:48:22.404Z,44.62
2018-06-30T22:50:50.724Z,44.15
2018-06-30T22:53:18.765Z,44.49
2018-06-30T22:55:46.795Z,44.43
2018-06-30T22:58:14.848Z,44.47
2018-06-30T23:00:42.913Z,44.94
2018-06-30T23:03:12.096Z,44.30
2018-06-30T23:05:40.999Z,44.54
2018-06-30T23:08:09.100Z,44.53
2018-06-30T23:10:37.152Z,44.50
2018-06-30T23:13:05.220Z,44.47
2018-06-30T23:15:33.257Z,45.13
2018-06-30T23:18:01.307Z,44.65
2018-06-30T23:20:29.359Z,44.55
2018-06-30T23:22:58.683Z,45.02
2018-06-30T23:25:27.806Z,45.32
2018-06-30T23:27:56.321Z,45.26
2018-06-30T23:30:24.997Z,45.41
2018-06-30T23:32:53.195Z,45.16
2018-06-30T23:35:22.521Z,45.36
2018-06-30T23:37:50.791Z,45.52
2018-06-30T23:40:18.998Z,45.81
2018-06-30T23:42:47.035Z,46.08
2018-06-30T23:45:15.091Z,45.42
2018-06-30T23:47:43.162Z,45.71
2018-06-30T23:50:11.207Z,46.19
2018-06-30T23:52:39.238Z,46.06
2018-06-30T23:55:07.911Z,46.21
2018-06-30T23:57:35.959Z,46.28
